Terminal Aerodrome Forecast
Issued by NWS

Home | Current Version | Previous Version | Text Only | Print | Product List | Glossary Off
Versions: 1 2 3 4 5 6 7 8 9 10 11 12 13 14 15 16 17 18 19 20 21

000
FTUS43 KBIS 111139 AAB
TAFDIK
TAF AMD
KDIK 111139Z 1112/1212 32024G34KT P6SM OVC020
     FM111300 32023G32KT P6SM OVC015
     FM111600 32024G34KT P6SM VCSH OVC015
     FM111900 31019G28KT P6SM OVC020
     FM120100 31013KT P6SM BKN020
     FM120400 28008KT P6SM SCT120=

USA.gov is the U.S. government's official web portal to all federal, state and local government web resources and services.